Lamar Park, Mississippi
Current Conditions -  °F | °C
As of 8:53 AM on Friday 31 Oct 2014 (Local Time) from KHBG Reporting Station
Clear Clear  
Wind Chill: 53°   Ceiling: Unl
Heat Index: 53°   Visibility: 10mi
Dew Point: 46°   Wind: 0mph
Humidity: 77%   Direction: NA
Pressure: 30.04"   Gusts: NA
Location:  31.1996°N, 89.2694°W
Report Text: KHBG 311353Z AUTO 00000KT 10SM CLR 12/08 A3004 RMK AO2 SLP171 T01170078
Loading
Personal Weather Stations






























Interactive Weather Map
Tropical Storm Tracking
New forecast layout! Learn more

10-Day Weather Forecast

Advertisements
Track Severe Weather on mobile